sensor_id;sensor_type;location;lat;lon;timestamp;P1;durP1;ratioP1;P2;durP2;ratioP2
2035;SDS011;23642;42.658;23.350;2023-09-08T00:01:56;116.47;;;109.23;;
2035;SDS011;23642;42.658;23.350;2023-09-08T00:04:23;113.87;;;106.73;;
2035;SDS011;23642;42.658;23.350;2023-09-08T00:06:56;117.37;;;110.17;;
2035;SDS011;23642;42.658;23.350;2023-09-08T00:09:24;118.67;;;111.27;;
2035;SDS011;23642;42.658;23.350;2023-09-08T00:11:51;116.00;;;108.60;;
2035;SDS011;23642;42.658;23.350;2023-09-08T00:14:19;115.17;;;107.97;;
2035;SDS011;23642;42.658;23.350;2023-09-08T00:16:49;113.50;;;106.47;;
2035;SDS011;23642;42.658;23.350;2023-09-08T00:19:16;113.67;;;106.47;;
2035;SDS011;23642;42.658;23.350;2023-09-08T00:21:45;112.23;;;105.23;;
2035;SDS011;23642;42.658;23.350;2023-09-08T00:24:36;112.63;;;105.60;;
2035;SDS011;23642;42.658;23.350;2023-09-08T00:27:08;114.13;;;106.80;;
2035;SDS011;23642;42.658;23.350;2023-09-08T00:29:40;113.60;;;106.80;;
2035;SDS011;23642;42.658;23.350;2023-09-08T00:32:09;115.80;;;108.90;;
2035;SDS011;23642;42.658;23.350;2023-09-08T00:34:37;111.47;;;104.63;;
2035;SDS011;23642;42.658;23.350;2023-09-08T00:37:07;114.40;;;107.70;;
2035;SDS011;23642;42.658;23.350;2023-09-08T00:39:45;112.50;;;105.60;;
2035;SDS011;23642;42.658;23.350;2023-09-08T00:42:15;112.13;;;105.43;;
2035;SDS011;23642;42.658;23.350;2023-09-08T00:44:44;111.90;;;105.20;;
2035;SDS011;23642;42.658;23.350;2023-09-08T00:47:13;114.60;;;107.57;;
2035;SDS011;23642;42.658;23.350;2023-09-08T00:49:40;113.47;;;106.80;;
2035;SDS011;23642;42.658;23.350;2023-09-08T00:52:19;113.60;;;107.00;;
2035;SDS011;23642;42.658;23.350;2023-09-08T00:55:00;112.30;;;105.70;;
2035;SDS011;23642;42.658;23.350;2023-09-08T00:57:38;112.33;;;105.73;;
2035;SDS011;23642;42.658;23.350;2023-09-08T01:00:10;114.77;;;107.97;;
2035;SDS011;23642;42.658;23.350;2023-09-08T01:02:39;112.53;;;105.77;;
2035;SDS011;23642;42.658;23.350;2023-09-08T01:05:06;113.60;;;106.90;;
2035;SDS011;23642;42.658;23.350;2023-09-08T01:07:42;110.83;;;104.17;;
2035;SDS011;23642;42.658;23.350;2023-09-08T01:10:12;110.93;;;104.43;;
2035;SDS011;23642;42.658;23.350;2023-09-08T01:12:45;113.93;;;107.33;;
2035;SDS011;23642;42.658;23.350;2023-09-08T01:15:12;113.30;;;106.53;;
2035;SDS011;23642;42.658;23.350;2023-09-08T01:17:44;112.00;;;105.50;;
2035;SDS011;23642;42.658;23.350;2023-09-08T01:20:13;112.67;;;105.90;;
2035;SDS011;23642;42.658;23.350;2023-09-08T01:23:00;111.60;;;105.20;;
2035;SDS011;23642;42.658;23.350;2023-09-08T01:25:41;108.17;;;101.93;;
2035;SDS011;23642;42.658;23.350;2023-09-08T01:28:15;108.57;;;101.83;;
2035;SDS011;23642;42.658;23.350;2023-09-08T01:30:43;112.57;;;105.60;;
2035;SDS011;23642;42.658;23.350;2023-09-08T01:33:14;109.83;;;102.33;;
2035;SDS011;23642;42.658;23.350;2023-09-08T01:35:41;110.90;;;104.20;;
2035;SDS011;23642;42.658;23.350;2023-09-08T01:38:09;112.77;;;105.97;;
2035;SDS011;23642;42.658;23.350;2023-09-08T01:40:37;111.43;;;104.80;;
2035;SDS011;23642;42.658;23.350;2023-09-08T01:43:08;110.00;;;103.30;;
2035;SDS011;23642;42.658;23.350;2023-09-08T01:45:35;111.10;;;104.50;;
2035;SDS011;23642;42.658;23.350;2023-09-08T01:48:04;107.97;;;101.47;;
2035;SDS011;23642;42.658;23.350;2023-09-08T01:50:32;111.57;;;105.07;;
2035;SDS011;23642;42.658;23.350;2023-09-08T01:52:59;112.53;;;105.87;;
2035;SDS011;23642;42.658;23.350;2023-09-08T01:55:29;112.70;;;106.20;;
2035;SDS011;23642;42.658;23.350;2023-09-08T01:57:56;113.10;;;106.40;;
2035;SDS011;23642;42.658;23.350;2023-09-08T02:00:25;112.40;;;105.50;;
2035;SDS011;23642;42.658;23.350;2023-09-08T02:02:53;112.40;;;105.70;;
2035;SDS011;23642;42.658;23.350;2023-09-08T02:05:20;112.27;;;105.30;;
2035;SDS011;23642;42.658;23.350;2023-09-08T02:10:33;111.37;;;104.33;;
2035;SDS011;23642;42.658;23.350;2023-09-08T02:13:00;111.63;;;104.70;;
2035;SDS011;23642;42.658;23.350;2023-09-08T02:15:31;108.70;;;101.90;;
2035;SDS011;23642;42.658;23.350;2023-09-08T02:18:01;112.27;;;105.53;;
2035;SDS011;23642;42.658;23.350;2023-09-08T02:20:32;109.47;;;102.63;;
2035;SDS011;23642;42.658;23.350;2023-09-08T02:23:05;107.40;;;100.80;;
2035;SDS011;23642;42.658;23.350;2023-09-08T02:25:38;105.73;;;99.33;;
2035;SDS011;23642;42.658;23.350;2023-09-08T02:28:05;107.10;;;100.50;;
2035;SDS011;23642;42.658;23.350;2023-09-08T02:30:39;106.47;;;99.93;;
2035;SDS011;23642;42.658;23.350;2023-09-08T02:33:08;111.10;;;104.23;;
2035;SDS011;23642;42.658;23.350;2023-09-08T02:35:39;105.63;;;99.13;;
2035;SDS011;23642;42.658;23.350;2023-09-08T02:38:08;109.17;;;102.23;;
2035;SDS011;23642;42.658;23.350;2023-09-08T02:40:38;106.60;;;100.10;;
2035;SDS011;23642;42.658;23.350;2023-09-08T02:43:07;106.83;;;99.93;;
2035;SDS011;23642;42.658;23.350;2023-09-08T02:45:40;107.57;;;100.80;;
2035;SDS011;23642;42.658;23.350;2023-09-08T02:48:09;106.87;;;100.23;;
2035;SDS011;23642;42.658;23.350;2023-09-08T02:50:38;108.67;;;101.50;;
2035;SDS011;23642;42.658;23.350;2023-09-08T02:53:12;108.43;;;101.73;;
2035;SDS011;23642;42.658;23.350;2023-09-08T02:55:43;105.10;;;98.60;;
2035;SDS011;23642;42.658;23.350;2023-09-08T02:58:13;109.50;;;102.47;;
2035;SDS011;23642;42.658;23.350;2023-09-08T03:00:44;106.17;;;99.40;;
2035;SDS011;23642;42.658;23.350;2023-09-08T03:03:11;107.57;;;100.80;;
2035;SDS011;23642;42.658;23.350;2023-09-08T03:05:37;107.03;;;100.33;;
2035;SDS011;23642;42.658;23.350;2023-09-08T03:08:05;106.73;;;99.93;;
2035;SDS011;23642;42.658;23.350;2023-09-08T03:10:32;106.30;;;99.60;;
2035;SDS011;23642;42.658;23.350;2023-09-08T03:13:01;107.80;;;100.70;;
2035;SDS011;23642;42.658;23.350;2023-09-08T03:15:29;105.67;;;98.93;;
2035;SDS011;23642;42.658;23.350;2023-09-08T03:17:58;105.77;;;98.80;;
2035;SDS011;23642;42.658;23.350;2023-09-08T03:20:25;102.57;;;95.57;;
2035;SDS011;23642;42.658;23.350;2023-09-08T03:22:53;102.63;;;95.77;;
2035;SDS011;23642;42.658;23.350;2023-09-08T03:25:21;101.57;;;95.07;;
2035;SDS011;23642;42.658;23.350;2023-09-08T03:27:57;101.33;;;94.87;;
2035;SDS011;23642;42.658;23.350;2023-09-08T03:30:25;99.33;;;92.73;;
2035;SDS011;23642;42.658;23.350;2023-09-08T03:32:52;100.83;;;93.40;;
2035;SDS011;23642;42.658;23.350;2023-09-08T03:35:21;98.57;;;91.97;;
2035;SDS011;23642;42.658;23.350;2023-09-08T03:38:00;101.33;;;94.70;;
2035;SDS011;23642;42.658;23.350;2023-09-08T03:40:29;98.60;;;92.10;;
2035;SDS011;23642;42.658;23.350;2023-09-08T03:42:56;97.57;;;90.93;;
2035;SDS011;23642;42.658;23.350;2023-09-08T03:45:43;97.83;;;91.20;;
2035;SDS011;23642;42.658;23.350;2023-09-08T03:48:14;101.00;;;94.00;;
2035;SDS011;23642;42.658;23.350;2023-09-08T03:50:51;98.50;;;91.80;;
2035;SDS011;23642;42.658;23.350;2023-09-08T03:53:30;99.20;;;92.50;;
2035;SDS011;23642;42.658;23.350;2023-09-08T03:56:01;100.53;;;93.90;;
2035;SDS011;23642;42.658;23.350;2023-09-08T03:58:31;102.87;;;95.53;;
2035;SDS011;23642;42.658;23.350;2023-09-08T04:00:58;103.33;;;96.40;;
2035;SDS011;23642;42.658;23.350;2023-09-08T04:03:31;102.43;;;95.63;;
2035;SDS011;23642;42.658;23.350;2023-09-08T04:06:03;101.60;;;94.50;;
2035;SDS011;23642;42.658;23.350;2023-09-08T04:08:30;99.40;;;92.60;;
2035;SDS011;23642;42.658;23.350;2023-09-08T04:10:57;99.17;;;92.30;;
2035;SDS011;23642;42.658;23.350;2023-09-08T04:13:23;99.80;;;92.73;;
2035;SDS011;23642;42.658;23.350;2023-09-08T04:15:54;99.23;;;92.30;;
2035;SDS011;23642;42.658;23.350;2023-09-08T04:18:23;99.50;;;92.73;;
2035;SDS011;23642;42.658;23.350;2023-09-08T04:20:53;98.53;;;91.90;;
2035;SDS011;23642;42.658;23.350;2023-09-08T04:23:27;98.40;;;91.80;;
2035;SDS011;23642;42.658;23.350;2023-09-08T04:26:17;101.57;;;94.80;;
2035;SDS011;23642;42.658;23.350;2023-09-08T04:28:47;100.97;;;93.50;;
2035;SDS011;23642;42.658;23.350;2023-09-08T04:31:21;99.30;;;92.60;;
2035;SDS011;23642;42.658;23.350;2023-09-08T04:36:27;101.20;;;94.00;;
2035;SDS011;23642;42.658;23.350;2023-09-08T04:39:02;99.77;;;92.80;;
2035;SDS011;23642;42.658;23.350;2023-09-08T04:41:44;101.53;;;94.43;;
2035;SDS011;23642;42.658;23.350;2023-09-08T04:44:27;99.57;;;92.30;;
2035;SDS011;23642;42.658;23.350;2023-09-08T04:47:09;100.47;;;93.50;;
2035;SDS011;23642;42.658;23.350;2023-09-08T04:49:42;102.23;;;94.80;;
2035;SDS011;23642;42.658;23.350;2023-09-08T04:52:15;101.33;;;94.03;;
2035;SDS011;23642;42.658;23.350;2023-09-08T04:54:46;101.50;;;94.00;;
2035;SDS011;23642;42.658;23.350;2023-09-08T04:57:20;102.10;;;94.70;;
2035;SDS011;23642;42.658;23.350;2023-09-08T04:59:50;100.40;;;93.17;;
2035;SDS011;23642;42.658;23.350;2023-09-08T05:02:22;100.60;;;93.37;;
2035;SDS011;23642;42.658;23.350;2023-09-08T05:05:07;99.67;;;92.47;;
2035;SDS011;23642;42.658;23.350;2023-09-08T05:07:43;103.37;;;95.47;;
2035;SDS011;23642;42.658;23.350;2023-09-08T05:10:16;100.30;;;93.10;;
2035;SDS011;23642;42.658;23.350;2023-09-08T05:12:49;101.23;;;94.13;;
2035;SDS011;23642;42.658;23.350;2023-09-08T05:15:19;100.90;;;94.10;;
2035;SDS011;23642;42.658;23.350;2023-09-08T05:18:01;103.40;;;96.10;;
2035;SDS011;23642;42.658;23.350;2023-09-08T05:20:34;101.50;;;94.53;;
2035;SDS011;23642;42.658;23.350;2023-09-08T05:23:03;105.10;;;97.30;;
2035;SDS011;23642;42.658;23.350;2023-09-08T05:25:34;106.33;;;99.03;;
2035;SDS011;23642;42.658;23.350;2023-09-08T05:28:04;102.70;;;95.63;;
2035;SDS011;23642;42.658;23.350;2023-09-08T05:30:37;105.97;;;98.90;;
2035;SDS011;23642;42.658;23.350;2023-09-08T05:33:04;104.63;;;97.50;;
2035;SDS011;23642;42.658;23.350;2023-09-08T05:35:32;106.07;;;98.87;;
2035;SDS011;23642;42.658;23.350;2023-09-08T05:38:07;102.73;;;95.83;;
2035;SDS011;23642;42.658;23.350;2023-09-08T05:40:36;106.40;;;99.20;;
2035;SDS011;23642;42.658;23.350;2023-09-08T05:43:05;104.43;;;97.20;;
2035;SDS011;23642;42.658;23.350;2023-09-08T05:45:38;107.03;;;99.83;;
2035;SDS011;23642;42.658;23.350;2023-09-08T05:48:07;105.37;;;98.40;;
2035;SDS011;23642;42.658;23.350;2023-09-08T05:50:47;104.60;;;97.70;;
2035;SDS011;23642;42.658;23.350;2023-09-08T05:53:18;102.50;;;95.70;;
2035;SDS011;23642;42.658;23.350;2023-09-08T05:55:49;103.20;;;96.30;;
2035;SDS011;23642;42.658;23.350;2023-09-08T05:58:21;109.07;;;101.70;;
2035;SDS011;23642;42.658;23.350;2023-09-08T06:00:52;107.47;;;100.23;;
2035;SDS011;23642;42.658;23.350;2023-09-08T06:03:36;106.43;;;99.53;;
2035;SDS011;23642;42.658;23.350;2023-09-08T06:06:07;112.03;;;104.87;;
2035;SDS011;23642;42.658;23.350;2023-09-08T06:08:36;111.73;;;104.63;;
2035;SDS011;23642;42.658;23.350;2023-09-08T06:11:10;107.20;;;100.40;;
2035;SDS011;23642;42.658;23.350;2023-09-08T06:13:41;110.27;;;102.60;;
2035;SDS011;23642;42.658;23.350;2023-09-08T06:16:22;112.20;;;104.90;;
2035;SDS011;23642;42.658;23.350;2023-09-08T06:18:57;111.77;;;104.47;;
2035;SDS011;23642;42.658;23.350;2023-09-08T06:21:32;111.70;;;104.37;;
2035;SDS011;23642;42.658;23.350;2023-09-08T06:24:01;108.33;;;101.07;;
2035;SDS011;23642;42.658;23.350;2023-09-08T06:26:33;109.80;;;103.00;;
2035;SDS011;23642;42.658;23.350;2023-09-08T06:29:04;111.00;;;104.10;;
2035;SDS011;23642;42.658;23.350;2023-09-08T06:31:37;111.33;;;103.97;;
2035;SDS011;23642;42.658;23.350;2023-09-08T06:34:06;112.50;;;105.60;;
2035;SDS011;23642;42.658;23.350;2023-09-08T06:36:47;106.10;;;99.60;;
2035;SDS011;23642;42.658;23.350;2023-09-08T06:39:14;113.23;;;105.63;;
2035;SDS011;23642;42.658;23.350;2023-09-08T06:41:49;108.67;;;102.00;;
2035;SDS011;23642;42.658;23.350;2023-09-08T06:44:22;109.43;;;102.63;;
2035;SDS011;23642;42.658;23.350;2023-09-08T06:46:54;111.60;;;104.30;;
2035;SDS011;23642;42.658;23.350;2023-09-08T06:49:31;107.43;;;100.20;;
2035;SDS011;23642;42.658;23.350;2023-09-08T06:54:50;109.90;;;102.97;;
2035;SDS011;23642;42.658;23.350;2023-09-08T06:57:25;106.10;;;99.33;;
2035;SDS011;23642;42.658;23.350;2023-09-08T07:00:06;105.50;;;98.70;;
2035;SDS011;23642;42.658;23.350;2023-09-08T07:02:42;107.10;;;99.63;;
2035;SDS011;23642;42.658;23.350;2023-09-08T07:05:22;108.73;;;101.70;;
2035;SDS011;23642;42.658;23.350;2023-09-08T07:07:50;108.10;;;101.37;;
2035;SDS011;23642;42.658;23.350;2023-09-08T07:10:17;108.97;;;101.97;;
2035;SDS011;23642;42.658;23.350;2023-09-08T07:12:53;109.03;;;101.87;;
2035;SDS011;23642;42.658;23.350;2023-09-08T07:15:25;108.70;;;101.77;;
2035;SDS011;23642;42.658;23.350;2023-09-08T07:18:09;105.07;;;98.67;;
2035;SDS011;23642;42.658;23.350;2023-09-08T07:20:38;106.20;;;99.83;;
2035;SDS011;23642;42.658;23.350;2023-09-08T07:58:03;107.87;;;101.57;;
2035;SDS011;23642;42.658;23.350;2023-09-08T08:00:49;106.47;;;100.07;;
2035;SDS011;23642;42.658;23.350;2023-09-08T08:03:37;108.50;;;101.80;;
2035;SDS011;23642;42.658;23.350;2023-09-08T08:06:27;105.50;;;99.10;;
2035;SDS011;23642;42.658;23.350;2023-09-08T08:12:01;108.80;;;102.10;;
2035;SDS011;23642;42.658;23.350;2023-09-08T08:14:35;106.13;;;99.67;;
2035;SDS011;23642;42.658;23.350;2023-09-08T08:17:08;110.53;;;104.03;;
2035;SDS011;23642;42.658;23.350;2023-09-08T08:19:43;108.90;;;102.30;;
2035;SDS011;23642;42.658;23.350;2023-09-08T08:22:22;106.23;;;99.47;;
2035;SDS011;23642;42.658;23.350;2023-09-08T08:24:49;108.10;;;101.37;;
2035;SDS011;23642;42.658;23.350;2023-09-08T08:27:18;105.57;;;99.13;;
2035;SDS011;23642;42.658;23.350;2023-09-08T08:29:49;104.80;;;98.30;;
2035;SDS011;23642;42.658;23.350;2023-09-08T08:32:31;109.03;;;102.40;;
2035;SDS011;23642;42.658;23.350;2023-09-08T08:35:02;113.80;;;107.03;;
2035;SDS011;23642;42.658;23.350;2023-09-08T08:37:31;114.87;;;108.17;;
2035;SDS011;23642;42.658;23.350;2023-09-08T08:39:59;116.07;;;109.17;;
2035;SDS011;23642;42.658;23.350;2023-09-08T08:42:30;116.80;;;110.00;;
2035;SDS011;23642;42.658;23.350;2023-09-08T08:44:59;117.43;;;110.53;;
2035;SDS011;23642;42.658;23.350;2023-09-08T08:47:30;113.70;;;107.10;;
2035;SDS011;23642;42.658;23.350;2023-09-08T08:49:58;110.80;;;104.20;;
2035;SDS011;23642;42.658;23.350;2023-09-08T08:52:28;116.30;;;109.60;;
2035;SDS011;23642;42.658;23.350;2023-09-08T08:55:06;116.73;;;110.00;;
2035;SDS011;23642;42.658;23.350;2023-09-08T08:57:50;107.40;;;100.80;;
2035;SDS011;23642;42.658;23.350;2023-09-08T09:00:21;105.80;;;99.53;;
2035;SDS011;23642;42.658;23.350;2023-09-08T09:02:50;109.80;;;102.87;;
2035;SDS011;23642;42.658;23.350;2023-09-08T09:05:25;107.73;;;101.23;;
2035;SDS011;23642;42.658;23.350;2023-09-08T09:07:52;113.77;;;107.07;;
2035;SDS011;23642;42.658;23.350;2023-09-08T09:10:31;115.33;;;108.53;;
2035;SDS011;23642;42.658;23.350;2023-09-08T09:12:58;106.80;;;100.10;;
2035;SDS011;23642;42.658;23.350;2023-09-08T09:15:29;116.17;;;109.57;;
2035;SDS011;23642;42.658;23.350;2023-09-08T09:18:03;115.93;;;109.07;;
2035;SDS011;23642;42.658;23.350;2023-09-08T09:20:33;108.10;;;101.80;;
2035;SDS011;23642;42.658;23.350;2023-09-08T09:23:15;106.37;;;100.07;;
2035;SDS011;23642;42.658;23.350;2023-09-08T09:26:22;106.07;;;99.63;;
2035;SDS011;23642;42.658;23.350;2023-09-08T09:29:01;108.83;;;102.13;;
2035;SDS011;23642;42.658;23.350;2023-09-08T09:31:48;114.67;;;107.90;;
2035;SDS011;23642;42.658;23.350;2023-09-08T09:34:21;113.40;;;106.73;;
2035;SDS011;23642;42.658;23.350;2023-09-08T09:36:50;105.37;;;99.07;;
2035;SDS011;23642;42.658;23.350;2023-09-08T09:39:24;106.67;;;100.10;;
2035;SDS011;23642;42.658;23.350;2023-09-08T09:41:53;106.53;;;100.03;;
2035;SDS011;23642;42.658;23.350;2023-09-08T09:44:22;107.07;;;100.37;;
2035;SDS011;23642;42.658;23.350;2023-09-08T09:47:00;112.97;;;106.47;;
2035;SDS011;23642;42.658;23.350;2023-09-08T09:49:28;114.60;;;107.53;;
2035;SDS011;23642;42.658;23.350;2023-09-08T09:51:59;105.10;;;98.80;;
2035;SDS011;23642;42.658;23.350;2023-09-08T09:54:40;105.70;;;99.40;;
2035;SDS011;23642;42.658;23.350;2023-09-08T09:57:11;106.27;;;100.00;;
2035;SDS011;23642;42.658;23.350;2023-09-08T09:59:46;103.90;;;97.70;;
2035;SDS011;23642;42.658;23.350;2023-09-08T10:02:17;114.20;;;107.70;;
2035;SDS011;23642;42.658;23.350;2023-09-08T10:05:08;114.40;;;107.40;;
2035;SDS011;23642;42.658;23.350;2023-09-08T10:07:40;104.73;;;98.40;;
2035;SDS011;23642;42.658;23.350;2023-09-08T10:10:19;105.53;;;99.20;;
2035;SDS011;23642;42.658;23.350;2023-09-08T10:12:49;107.73;;;101.40;;
2035;SDS011;23642;42.658;23.350;2023-09-08T10:15:25;105.93;;;99.53;;
2035;SDS011;23642;42.658;23.350;2023-09-08T10:18:19;113.13;;;106.60;;
2035;SDS011;23642;42.658;23.350;2023-09-08T10:20:53;110.90;;;104.30;;
2035;SDS011;23642;42.658;23.350;2023-09-08T10:23:54;112.33;;;105.67;;
2035;SDS011;23642;42.658;23.350;2023-09-08T10:26:50;108.10;;;100.77;;
2035;SDS011;23642;42.658;23.350;2023-09-08T10:29:30;108.23;;;101.40;;
2035;SDS011;23642;42.658;23.350;2023-09-08T10:32:16;104.93;;;98.47;;
2035;SDS011;23642;42.658;23.350;2023-09-08T10:34:46;107.43;;;100.70;;
2035;SDS011;23642;42.658;23.350;2023-09-08T10:40:24;111.00;;;104.60;;
2035;SDS011;23642;42.658;23.350;2023-09-08T10:43:05;104.73;;;98.23;;
2035;SDS011;23642;42.658;23.350;2023-09-08T10:45:39;108.10;;;100.60;;
2035;SDS011;23642;42.658;23.350;2023-09-08T10:48:06;108.93;;;101.40;;
2035;SDS011;23642;42.658;23.350;2023-09-08T10:50:40;107.37;;;100.13;;
2035;SDS011;23642;42.658;23.350;2023-09-08T10:53:15;113.67;;;106.83;;
2035;SDS011;23642;42.658;23.350;2023-09-08T10:55:49;111.60;;;105.10;;
2035;SDS011;23642;42.658;23.350;2023-09-08T10:58:21;103.67;;;97.33;;
2035;SDS011;23642;42.658;23.350;2023-09-08T11:03:43;103.73;;;97.43;;
2035;SDS011;23642;42.658;23.350;2023-09-08T11:06:17;104.17;;;97.67;;
2035;SDS011;23642;42.658;23.350;2023-09-08T11:08:47;103.07;;;96.80;;
2035;SDS011;23642;42.658;23.350;2023-09-08T11:11:18;103.83;;;97.63;;
2035;SDS011;23642;42.658;23.350;2023-09-08T11:13:46;105.20;;;98.63;;
2035;SDS011;23642;42.658;23.350;2023-09-08T11:16:14;111.13;;;104.30;;
2035;SDS011;23642;42.658;23.350;2023-09-08T11:22:12;103.87;;;97.33;;
2035;SDS011;23642;42.658;23.350;2023-09-08T11:24:42;106.77;;;100.20;;
2035;SDS011;23642;42.658;23.350;2023-09-08T11:27:09;105.93;;;99.20;;
2035;SDS011;23642;42.658;23.350;2023-09-08T11:29:40;103.07;;;96.63;;
2035;SDS011;23642;42.658;23.350;2023-09-08T11:32:07;104.70;;;98.30;;
2035;SDS011;23642;42.658;23.350;2023-09-08T11:34:36;102.67;;;96.37;;
2035;SDS011;23642;42.658;23.350;2023-09-08T11:37:07;103.13;;;96.83;;
2035;SDS011;23642;42.658;23.350;2023-09-08T11:39:40;101.83;;;95.33;;
2035;SDS011;23642;42.658;23.350;2023-09-08T11:42:11;112.97;;;105.90;;
2035;SDS011;23642;42.658;23.350;2023-09-08T11:44:39;111.50;;;104.90;;
2035;SDS011;23642;42.658;23.350;2023-09-08T11:47:07;103.97;;;97.77;;
2035;SDS011;23642;42.658;23.350;2023-09-08T11:49:35;102.97;;;96.60;;
2035;SDS011;23642;42.658;23.350;2023-09-08T11:52:03;102.40;;;96.10;;
2035;SDS011;23642;42.658;23.350;2023-09-08T11:54:30;103.73;;;97.43;;
2035;SDS011;23642;42.658;23.350;2023-09-08T11:57:02;105.20;;;98.70;;
2035;SDS011;23642;42.658;23.350;2023-09-08T11:59:33;102.30;;;96.17;;
2035;SDS011;23642;42.658;23.350;2023-09-08T12:02:01;102.17;;;96.07;;
2035;SDS011;23642;42.658;23.350;2023-09-08T12:04:29;103.30;;;97.10;;
2035;SDS011;23642;42.658;23.350;2023-09-08T12:07:12;109.90;;;103.70;;
2035;SDS011;23642;42.658;23.350;2023-09-08T12:09:44;116.10;;;109.50;;
2035;SDS011;23642;42.658;23.350;2023-09-08T12:12:13;104.77;;;98.47;;
2035;SDS011;23642;42.658;23.350;2023-09-08T12:14:41;103.23;;;97.13;;
2035;SDS011;23642;42.658;23.350;2023-09-08T12:17:13;105.43;;;99.23;;
2035;SDS011;23642;42.658;23.350;2023-09-08T12:19:42;104.83;;;98.60;;
2035;SDS011;23642;42.658;23.350;2023-09-08T12:22:09;117.80;;;110.83;;
2035;SDS011;23642;42.658;23.350;2023-09-08T12:27:30;115.10;;;108.13;;
2035;SDS011;23642;42.658;23.350;2023-09-08T12:30:04;121.00;;;113.07;;
2035;SDS011;23642;42.658;23.350;2023-09-08T12:32:35;116.57;;;109.07;;
2035;SDS011;23642;42.658;23.350;2023-09-08T12:35:03;112.53;;;106.07;;
2035;SDS011;23642;42.658;23.350;2023-09-08T12:37:32;113.93;;;107.07;;
2035;SDS011;23642;42.658;23.350;2023-09-08T12:40:02;114.43;;;107.80;;
2035;SDS011;23642;42.658;23.350;2023-09-08T12:45:26;110.53;;;103.93;;
2035;SDS011;23642;42.658;23.350;2023-09-08T12:48:02;113.60;;;107.00;;
2035;SDS011;23642;42.658;23.350;2023-09-08T12:50:36;113.93;;;107.43;;
2035;SDS011;23642;42.658;23.350;2023-09-08T12:56:13;106.17;;;99.73;;
2035;SDS011;23642;42.658;23.350;2023-09-08T12:58:54;109.17;;;102.73;;
2035;SDS011;23642;42.658;23.350;2023-09-08T13:01:21;112.70;;;105.90;;
2035;SDS011;23642;42.658;23.350;2023-09-08T13:03:48;112.50;;;105.57;;
2035;SDS011;23642;42.658;23.350;2023-09-08T13:06:20;104.57;;;98.30;;
2035;SDS011;23642;42.658;23.350;2023-09-08T13:08:53;115.57;;;108.50;;
2035;SDS011;23642;42.658;23.350;2023-09-08T13:11:20;116.77;;;109.23;;
2035;SDS011;23642;42.658;23.350;2023-09-08T13:13:47;114.93;;;108.33;;
2035;SDS011;23642;42.658;23.350;2023-09-08T13:16:16;108.27;;;101.87;;
2035;SDS011;23642;42.658;23.350;2023-09-08T13:18:43;106.57;;;99.57;;
2035;SDS011;23642;42.658;23.350;2023-09-08T13:21:10;116.27;;;109.73;;
2035;SDS011;23642;42.658;23.350;2023-09-08T13:23:42;106.17;;;99.60;;
2035;SDS011;23642;42.658;23.350;2023-09-08T13:26:24;108.77;;;102.23;;
2035;SDS011;23642;42.658;23.350;2023-09-08T13:28:51;107.03;;;100.73;;
2035;SDS011;23642;42.658;23.350;2023-09-08T13:31:30;105.73;;;99.43;;
2035;SDS011;23642;42.658;23.350;2023-09-08T13:34:04;107.00;;;100.70;;
2035;SDS011;23642;42.658;23.350;2023-09-08T13:36:40;105.27;;;99.17;;
2035;SDS011;23642;42.658;23.350;2023-09-08T13:39:09;104.23;;;97.57;;
2035;SDS011;23642;42.658;23.350;2023-09-08T13:41:46;107.97;;;101.63;;
2035;SDS011;23642;42.658;23.350;2023-09-08T13:44:15;116.10;;;109.40;;
2035;SDS011;23642;42.658;23.350;2023-09-08T13:46:45;113.67;;;107.17;;
2035;SDS011;23642;42.658;23.350;2023-09-08T13:49:15;115.07;;;108.43;;
2035;SDS011;23642;42.658;23.350;2023-09-08T13:51:45;114.17;;;107.47;;
2035;SDS011;23642;42.658;23.350;2023-09-08T13:54:27;117.70;;;110.87;;
2035;SDS011;23642;42.658;23.350;2023-09-08T13:57:00;118.10;;;111.30;;
2035;SDS011;23642;42.658;23.350;2023-09-08T13:59:39;118.47;;;111.77;;
2035;SDS011;23642;42.658;23.350;2023-09-08T14:02:19;114.47;;;106.73;;
2035;SDS011;23642;42.658;23.350;2023-09-08T14:04:53;113.90;;;106.83;;
2035;SDS011;23642;42.658;23.350;2023-09-08T14:07:21;106.97;;;100.67;;
2035;SDS011;23642;42.658;23.350;2023-09-08T14:09:50;116.83;;;110.33;;
2035;SDS011;23642;42.658;23.350;2023-09-08T14:16:10;111.43;;;105.20;;
2035;SDS011;23642;42.658;23.350;2023-09-08T14:18:39;103.13;;;97.23;;
2035;SDS011;23642;42.658;23.350;2023-09-08T14:24:12;114.30;;;107.70;;
2035;SDS011;23642;42.658;23.350;2023-09-08T14:26:45;116.83;;;110.10;;
2035;SDS011;23642;42.658;23.350;2023-09-08T14:29:15;105.50;;;99.10;;
2035;SDS011;23642;42.658;23.350;2023-09-08T14:31:48;106.77;;;100.67;;
2035;SDS011;23642;42.658;23.350;2023-09-08T14:34:28;115.23;;;108.63;;
2035;SDS011;23642;42.658;23.350;2023-09-08T14:36:56;111.40;;;104.80;;
2035;SDS011;23642;42.658;23.350;2023-09-08T14:39:30;107.57;;;101.37;;
2035;SDS011;23642;42.658;23.350;2023-09-08T14:42:09;105.40;;;99.40;;
2035;SDS011;23642;42.658;23.350;2023-09-08T14:44:36;109.83;;;103.53;;
2035;SDS011;23642;42.658;23.350;2023-09-08T14:47:07;113.67;;;106.97;;
2035;SDS011;23642;42.658;23.350;2023-09-08T14:49:42;113.23;;;106.50;;
2035;SDS011;23642;42.658;23.350;2023-09-08T14:52:25;102.23;;;96.03;;
2035;SDS011;23642;42.658;23.350;2023-09-08T14:54:53;105.67;;;99.43;;
2035;SDS011;23642;42.658;23.350;2023-09-08T14:57:24;110.53;;;104.40;;
2035;SDS011;23642;42.658;23.350;2023-09-08T14:59:57;112.57;;;106.27;;
2035;SDS011;23642;42.658;23.350;2023-09-08T15:02:39;103.60;;;97.30;;
2035;SDS011;23642;42.658;23.350;2023-09-08T15:05:16;102.70;;;96.50;;
2035;SDS011;23642;42.658;23.350;2023-09-08T15:08:03;97.50;;;91.70;;
2035;SDS011;23642;42.658;23.350;2023-09-08T15:10:51;99.83;;;93.43;;
2035;SDS011;23642;42.658;23.350;2023-09-08T15:13:32;100.23;;;94.23;;
2035;SDS011;23642;42.658;23.350;2023-09-08T15:16:05;98.63;;;92.37;;
2035;SDS011;23642;42.658;23.350;2023-09-08T15:18:32;100.20;;;94.00;;
2035;SDS011;23642;42.658;23.350;2023-09-08T15:21:06;96.27;;;90.40;;
2035;SDS011;23642;42.658;23.350;2023-09-08T15:23:34;99.93;;;93.83;;
2035;SDS011;23642;42.658;23.350;2023-09-08T15:26:11;99.07;;;92.70;;
2035;SDS011;23642;42.658;23.350;2023-09-08T15:28:50;95.90;;;89.90;;
2035;SDS011;23642;42.658;23.350;2023-09-08T15:31:48;99.77;;;93.70;;
2035;SDS011;23642;42.658;23.350;2023-09-08T15:34:16;98.60;;;92.70;;
2035;SDS011;23642;42.658;23.350;2023-09-08T15:36:48;98.90;;;92.90;;
2035;SDS011;23642;42.658;23.350;2023-09-08T15:39:18;98.17;;;92.27;;
2035;SDS011;23642;42.658;23.350;2023-09-08T15:41:48;99.77;;;93.70;;
2035;SDS011;23642;42.658;23.350;2023-09-08T15:44:21;99.47;;;93.40;;
2035;SDS011;23642;42.658;23.350;2023-09-08T15:46:51;96.40;;;90.50;;